createdAt,value
2018-12-08T00:00:48.084Z,27.1
2018-12-08T00:01:48.078Z,26.5
2018-12-08T00:02:48.101Z,26.7
2018-12-08T00:03:48.146Z,27.3
2018-12-08T00:04:48.068Z,27.6
2018-12-08T00:05:48.056Z,28.6
2018-12-08T00:06:48.149Z,29
2018-12-08T00:07:48.141Z,30
2018-12-08T00:08:48.134Z,30
2018-12-08T00:09:48.092Z,29.3
2018-12-08T00:10:48.139Z,29.4
2018-12-08T00:11:48.086Z,30.5
2018-12-08T00:12:48.073Z,30.8
2018-12-08T00:13:48.090Z,31.3
2018-12-08T00:14:48.141Z,31
2018-12-08T00:15:48.085Z,31.8
2018-12-08T00:16:48.116Z,31.8
2018-12-08T00:17:48.079Z,32.1
2018-12-08T00:18:48.070Z,32.4
2018-12-08T00:19:48.078Z,32.5
2018-12-08T00:20:48.084Z,33.3
2018-12-08T00:21:48.130Z,32.7
2018-12-08T00:22:48.087Z,31.6
2018-12-08T00:23:48.062Z,32.2
2018-12-08T00:24:48.129Z,32.5
2018-12-08T00:25:48.086Z,32.5
2018-12-08T00:26:48.066Z,32.2
2018-12-08T00:27:48.059Z,31.7
2018-12-08T00:28:48.061Z,31.7
2018-12-08T00:29:48.149Z,31.9
2018-12-08T00:30:48.123Z,32.6
2018-12-08T00:31:48.140Z,32.6
2018-12-08T00:32:48.042Z,32.8
2018-12-08T00:33:48.057Z,33.4
2018-12-08T00:34:48.077Z,32.8
2018-12-08T00:35:48.075Z,33
2018-12-08T00:36:48.078Z,33.4
2018-12-08T00:37:48.053Z,34.4
2018-12-08T00:38:48.039Z,35
2018-12-08T00:39:48.055Z,35.7
2018-12-08T00:40:48.052Z,36.1
2018-12-08T00:41:48.127Z,35.5
2018-12-08T00:42:48.072Z,35.7
2018-12-08T00:43:48.128Z,34.9
2018-12-08T00:44:48.048Z,34.1
2018-12-08T00:45:48.078Z,33.9
2018-12-08T00:46:48.069Z,34.8
2018-12-08T00:47:48.077Z,34.6
2018-12-08T00:48:48.173Z,35
2018-12-08T00:49:48.052Z,35
2018-12-08T00:50:48.050Z,35.5
2018-12-08T00:51:48.048Z,36
2018-12-08T00:52:48.120Z,36.4
2018-12-08T00:53:48.128Z,36.5
2018-12-08T00:54:48.054Z,36.7
2018-12-08T00:55:48.040Z,36.2
2018-12-08T00:56:48.068Z,37
2018-12-08T00:57:48.138Z,37
2018-12-08T00:58:48.073Z,37
2018-12-08T00:59:48.037Z,36.5
2018-12-08T01:00:48.068Z,36.7
2018-12-08T01:01:48.066Z,36.2
2018-12-08T01:02:48.121Z,35.2
2018-12-08T01:03:48.038Z,34.2
2018-12-08T01:04:48.045Z,34.5
2018-12-08T01:05:48.048Z,34.1
2018-12-08T01:06:48.044Z,34.4
2018-12-08T01:07:48.084Z,34.2
2018-12-08T01:08:48.116Z,34.2
2018-12-08T01:09:48.059Z,34.9
2018-12-08T01:10:48.112Z,35
2018-12-08T01:11:48.043Z,34.4
2018-12-08T01:12:48.065Z,34.5
2018-12-08T01:13:48.113Z,34
2018-12-08T01:14:48.140Z,33.8
2018-12-08T01:15:48.057Z,35.2
2018-12-08T01:16:48.021Z,35.2
2018-12-08T01:17:48.035Z,34.9
2018-12-08T01:18:48.030Z,35.7
2018-12-08T01:19:48.087Z,35.2
2018-12-08T01:20:48.035Z,34.7
2018-12-08T01:21:48.041Z,34.7
2018-12-08T01:22:48.042Z,34.4
2018-12-08T01:23:48.031Z,34.6
2018-12-08T01:24:48.119Z,35
2018-12-08T01:25:48.100Z,35.7
2018-12-08T01:26:48.022Z,36.2
2018-12-08T01:27:48.030Z,35.4
2018-12-08T01:28:48.057Z,35.4
2018-12-08T01:29:48.054Z,35.5
2018-12-08T01:30:48.105Z,34.8
2018-12-08T01:31:48.109Z,34.8
2018-12-08T01:32:48.029Z,34.3
2018-12-08T01:33:48.031Z,34.1
2018-12-08T01:34:48.046Z,33.3
2018-12-08T01:35:48.103Z,32.6
2018-12-08T01:36:48.108Z,32.6
2018-12-08T01:37:48.102Z,32.5
2018-12-08T01:38:48.016Z,32.5
2018-12-08T01:39:48.029Z,31.8
2018-12-08T01:40:48.030Z,32
2018-12-08T01:41:48.046Z,33.2
2018-12-08T01:42:48.105Z,33.3
2018-12-08T01:43:48.101Z,33.1
2018-12-08T01:44:48.050Z,34.5
2018-12-08T01:45:48.046Z,34.1
2018-12-08T01:46:48.116Z,32.8
2018-12-08T01:47:48.049Z,33.1
2018-12-08T01:48:48.117Z,32.5
2018-12-08T01:49:48.033Z,32.6
2018-12-08T01:50:48.044Z,32.2
2018-12-08T01:51:48.042Z,32.4
2018-12-08T01:52:48.027Z,32.1
2018-12-08T01:53:48.089Z,31.8
2018-12-08T01:54:48.032Z,32.4
2018-12-08T01:55:48.026Z,32.1
2018-12-08T01:56:48.018Z,31.8
2018-12-08T01:57:48.106Z,31.8
2018-12-08T01:58:48.044Z,32.4
2018-12-08T01:59:48.021Z,32.2
2018-12-08T02:00:48.040Z,32.1
2018-12-08T02:01:48.019Z,31.8
2018-12-08T02:02:48.097Z,31
2018-12-08T02:03:48.017Z,31.7
2018-12-08T02:04:48.074Z,31.3
2018-12-08T02:05:48.021Z,30.7
2018-12-08T02:06:48.042Z,30.9
2018-12-08T02:07:48.035Z,31.2
2018-12-08T02:08:48.086Z,31.7
2018-12-08T02:09:48.086Z,32.5
2018-12-08T02:10:47.998Z,31.9
2018-12-08T02:11:47.995Z,31.5
2018-12-08T02:12:48.034Z,32.4
2018-12-08T02:13:48.011Z,31.3
2018-12-08T02:14:48.085Z,31.5
2018-12-08T02:15:48.014Z,32.5
2018-12-08T02:16:48.018Z,32.1
2018-12-08T02:17:48.096Z,33.1
2018-12-08T02:18:48.016Z,33
2018-12-08T02:19:48.004Z,33.2
2018-12-08T02:20:48.019Z,33.5
2018-12-08T02:21:48.070Z,33.3
2018-12-08T02:22:48.019Z,33.1
2018-12-08T02:23:48.004Z,32.4
2018-12-08T02:24:48.008Z,32.1
2018-12-08T02:25:48.037Z,31.1
2018-12-08T02:26:48.152Z,30.5
2018-12-08T02:27:48.013Z,29.9
2018-12-08T02:28:48.008Z,29.5
2018-12-08T02:29:48.025Z,28.9
2018-12-08T02:30:48.021Z,29
2018-12-08T02:31:48.081Z,28.4
2018-12-08T02:32:48.010Z,27
2018-12-08T02:33:48.033Z,26.2
2018-12-08T02:34:48.004Z,25.4
2018-12-08T02:35:48.096Z,25.3
2018-12-08T02:36:48.018Z,25
2018-12-08T02:37:48.001Z,24
2018-12-08T02:38:48.065Z,23.4
2018-12-08T02:39:48.002Z,22.9
2018-12-08T02:40:48.074Z,22.3
2018-12-08T02:41:47.996Z,21.4
2018-12-08T02:42:48.048Z,22.2
2018-12-08T02:43:48.002Z,22.3
2018-12-08T02:44:48.085Z,21.9
2018-12-08T02:45:48.017Z,22
2018-12-08T02:46:48.025Z,21.4
2018-12-08T02:47:47.990Z,22.1
2018-12-08T02:48:48.007Z,22.2
2018-12-08T02:49:48.009Z,22.4
2018-12-08T02:50:47.994Z,22.5
2018-12-08T02:51:48.051Z,22.1
2018-12-08T02:52:47.989Z,22.3
2018-12-08T02:53:47.989Z,22.8
2018-12-08T02:54:48.030Z,22.6
2018-12-08T02:55:47.991Z,23.1
2018-12-08T02:56:47.993Z,23.9
2018-12-08T02:57:48.053Z,24.9
2018-12-08T02:58:47.991Z,25.6
2018-12-08T02:59:47.995Z,27
2018-12-08T03:00:48.036Z,28.4
2018-12-08T03:01:47.991Z,27.6
2018-12-08T03:02:47.985Z,28.3
2018-12-08T03:03:48.006Z,29.4
2018-12-08T03:04:47.991Z,30
2018-12-08T03:05:48.041Z,31
2018-12-08T03:06:48.000Z,32.4
2018-12-08T03:07:48.064Z,33
2018-12-08T03:08:48.004Z,33.3
2018-12-08T03:09:47.999Z,34.7
2018-12-08T03:10:47.985Z,35.3
2018-12-08T03:11:48.059Z,36.2
2018-12-08T03:12:48.000Z,38.1
2018-12-08T03:13:47.998Z,39
2018-12-08T03:14:47.985Z,40.3
2018-12-08T03:15:47.995Z,41
2018-12-08T03:16:48.023Z,41.5
2018-12-08T03:17:47.996Z,42.8
2018-12-08T03:18:47.984Z,44
2018-12-08T03:19:48.004Z,45.6
2018-12-08T03:20:48.105Z,45.8
2018-12-08T03:21:47.982Z,47
2018-12-08T03:22:48.062Z,47.7
2018-12-08T03:23:47.984Z,48.9
2018-12-08T03:24:47.978Z,49.8
2018-12-08T03:25:47.969Z,50.9
2018-12-08T03:26:48.070Z,51.7
2018-12-08T03:27:47.958Z,51.6
2018-12-08T03:28:47.989Z,51.1
2018-12-08T03:29:47.968Z,50.8
2018-12-08T03:30:47.994Z,50.6
2018-12-08T03:31:48.047Z,50.8
2018-12-08T03:32:48.023Z,49.5
2018-12-08T03:33:47.987Z,48.4
2018-12-08T03:34:47.989Z,48.4
2018-12-08T03:35:47.992Z,48.6
2018-12-08T03:36:48.040Z,48.2
2018-12-08T03:37:47.973Z,47.4
2018-12-08T03:38:48.017Z,46.6
2018-12-08T03:39:47.966Z,45.9
2018-12-08T03:40:47.971Z,45.6
2018-12-08T03:41:47.983Z,45.8
2018-12-08T03:42:48.032Z,46
2018-12-08T03:43:47.972Z,45.9
2018-12-08T03:44:47.965Z,45.6
2018-12-08T03:45:47.966Z,44.4
2018-12-08T03:46:48.044Z,44.8
2018-12-08T03:47:47.961Z,44.4
2018-12-08T03:48:47.948Z,44.6
2018-12-08T03:49:47.968Z,44.4
2018-12-08T03:50:47.986Z,44.8
2018-12-08T03:51:48.051Z,45.2
2018-12-08T03:52:48.047Z,46.1
2018-12-08T03:53:47.961Z,47.8
2018-12-08T03:54:47.943Z,49.8
2018-12-08T03:55:47.978Z,51.6
2018-12-08T03:56:47.973Z,53.9
2018-12-08T03:57:47.956Z,55.2
2018-12-08T03:58:47.959Z,55.5
2018-12-08T03:59:47.955Z,55.4
2018-12-08T04:00:48.045Z,55.7
2018-12-08T04:01:47.974Z,57.3
2018-12-08T04:02:48.018Z,56.5
2018-12-08T04:03:47.979Z,54
2018-12-08T04:04:47.953Z,53.2
2018-12-08T04:05:48.026Z,50.9
2018-12-08T04:06:47.954Z,47.8
2018-12-08T04:07:48.031Z,45.8
2018-12-08T04:08:47.957Z,43.6
2018-12-08T04:09:47.950Z,42.1
2018-12-08T04:10:47.960Z,40
2018-12-08T04:11:48.002Z,39.4
2018-12-08T04:12:48.022Z,38.4
2018-12-08T04:13:47.949Z,37.2
2018-12-08T04:14:47.952Z,36.1
2018-12-08T04:15:48.052Z,36
2018-12-08T04:16:47.959Z,36.1
2018-12-08T04:17:47.965Z,35.4
2018-12-08T04:18:47.969Z,34.5
2018-12-08T04:19:47.964Z,33.8
2018-12-08T04:20:48.044Z,32.4
2018-12-08T04:21:47.949Z,31.8
2018-12-08T04:22:47.970Z,30.9
2018-12-08T04:23:48.031Z,31.1
2018-12-08T04:24:47.942Z,31.5
2018-12-08T04:25:47.965Z,31.5
2018-12-08T04:26:47.949Z,31.8
2018-12-08T04:27:47.942Z,33
2018-12-08T04:28:48.016Z,33
2018-12-08T04:29:47.938Z,32.3
2018-12-08T04:30:48.045Z,33.1
2018-12-08T04:31:47.945Z,34.3
2018-12-08T04:32:47.944Z,34.1
2018-12-08T04:33:48.005Z,33.5
2018-12-08T04:34:47.935Z,32.6
2018-12-08T04:35:48.032Z,33
2018-12-08T04:36:47.917Z,32.2
2018-12-08T04:37:47.949Z,32.6
2018-12-08T04:38:47.982Z,32.5
2018-12-08T04:39:47.933Z,32.4
2018-12-08T04:40:47.931Z,32.2
2018-12-08T04:41:47.949Z,32.5
2018-12-08T04:42:47.960Z,32.6
2018-12-08T04:43:47.989Z,33
2018-12-08T04:44:47.927Z,32.8
2018-12-08T04:45:47.928Z,32.9
2018-12-08T04:46:47.952Z,33
2018-12-08T04:47:47.954Z,33.6
2018-12-08T04:48:47.976Z,34.4
2018-12-08T04:49:47.930Z,34.6
2018-12-08T04:50:47.952Z,34.8
2018-12-08T04:51:48.030Z,34.5
2018-12-08T04:52:47.956Z,34.4
2018-12-08T04:53:48.046Z,34.3
2018-12-08T04:54:47.932Z,34.8
2018-12-08T04:55:47.927Z,34.3
2018-12-08T04:56:47.921Z,34.7
2018-12-08T04:57:47.961Z,34.6
2018-12-08T04:58:48.005Z,34.2
2018-12-08T04:59:47.974Z,34
2018-12-08T05:00:47.922Z,33.7
2018-12-08T05:01:47.946Z,33.1
2018-12-08T05:02:48.009Z,33.2
2018-12-08T05:03:47.975Z,32.8
2018-12-08T05:04:47.937Z,32.5
2018-12-08T05:05:47.925Z,32
2018-12-08T05:06:47.923Z,31.3
2018-12-08T05:07:48.010Z,30.8
2018-12-08T05:08:47.939Z,30.5
2018-12-08T05:09:47.939Z,30.1
2018-12-08T05:10:47.960Z,31
2018-12-08T05:11:47.986Z,30.6
2018-12-08T05:12:47.926Z,30.1
2018-12-08T05:13:48.046Z,30.4
2018-12-08T05:14:47.940Z,30.9
2018-12-08T05:15:47.936Z,31.2
2018-12-08T05:16:47.916Z,31.2
2018-12-08T05:17:48.003Z,31.8
2018-12-08T05:18:47.982Z,32.5
2018-12-08T05:19:47.934Z,32.8
2018-12-08T05:20:47.913Z,33.1
2018-12-08T05:21:47.907Z,33.3
2018-12-08T05:22:47.907Z,34
2018-12-08T05:23:47.928Z,33.8
2018-12-08T05:24:47.930Z,33
2018-12-08T05:25:47.930Z,33.2
2018-12-08T05:26:47.991Z,32.8
2018-12-08T05:27:47.893Z,32.9
2018-12-08T05:28:47.914Z,33.5
2018-12-08T05:29:47.974Z,33.3
2018-12-08T05:30:47.903Z,32.7
2018-12-08T05:31:47.905Z,33.5
2018-12-08T05:32:47.974Z,34.2
2018-12-08T05:33:47.954Z,34.3
2018-12-08T05:34:48.005Z,34.8
2018-12-08T05:35:47.907Z,34.7
2018-12-08T05:36:47.902Z,35.2
2018-12-08T05:37:47.897Z,34.7
2018-12-08T05:38:47.920Z,35.5
2018-12-08T05:39:48.080Z,35.8
2018-12-08T05:40:47.917Z,35.8
2018-12-08T05:41:47.901Z,35.4
2018-12-08T05:42:47.921Z,35.6
2018-12-08T05:43:47.884Z,35.2
2018-12-08T05:44:47.970Z,35.1
2018-12-08T05:45:47.928Z,34.9
2018-12-08T05:46:47.905Z,35.1
2018-12-08T05:47:47.912Z,35.9
2018-12-08T05:48:47.885Z,35.2
2018-12-08T05:49:47.963Z,35.6
2018-12-08T05:50:47.951Z,35.4
2018-12-08T05:51:47.968Z,35
2018-12-08T05:52:47.967Z,34.9
2018-12-08T05:53:47.916Z,35.1
2018-12-08T05:54:47.891Z,35.1
2018-12-08T05:55:47.965Z,34.8
2018-12-08T05:56:47.917Z,34.8
2018-12-08T05:57:47.962Z,34.5
2018-12-08T05:58:47.893Z,34
2018-12-08T05:59:47.891Z,33.7
2018-12-08T06:00:47.895Z,34.4
2018-12-08T06:01:47.977Z,33.6
2018-12-08T06:02:47.897Z,33.6
2018-12-08T06:03:47.890Z,33.6
2018-12-08T06:04:47.887Z,33
2018-12-08T06:05:47.889Z,33.4
2018-12-08T06:06:47.964Z,33.6
2018-12-08T06:07:47.905Z,33.9
2018-12-08T06:08:47.914Z,34.6
2018-12-08T06:09:47.884Z,34.1
2018-12-08T06:10:47.866Z,33.9
2018-12-08T06:11:47.951Z,33.7
2018-12-08T06:12:47.885Z,33.5
2018-12-08T06:13:47.885Z,33.4
2018-12-08T06:14:47.899Z,33.3
2018-12-08T06:15:47.912Z,33.7
2018-12-08T06:16:47.865Z,33.8
2018-12-08T06:17:47.907Z,34.2
2018-12-08T06:18:47.935Z,35
2018-12-08T06:19:47.967Z,35.1
2018-12-08T06:20:47.900Z,34.3
2018-12-08T06:21:47.861Z,34.9
2018-12-08T06:22:47.901Z,35.1
2018-12-08T06:23:47.974Z,35.7
2018-12-08T06:24:47.901Z,35.9
2018-12-08T06:25:47.902Z,35.4
2018-12-08T06:26:47.885Z,35.4
2018-12-08T06:27:47.880Z,36.3
2018-12-08T06:28:47.945Z,36.2
2018-12-08T06:29:47.891Z,35.6
2018-12-08T06:30:47.898Z,35.3
2018-12-08T06:31:47.895Z,36.1
2018-12-08T06:32:47.935Z,37.2
2018-12-08T06:33:48.061Z,38
2018-12-08T06:34:47.868Z,37.9
2018-12-08T06:35:47.902Z,38.7
2018-12-08T06:36:47.874Z,38.9
2018-12-08T06:37:47.881Z,38.3
2018-12-08T06:38:47.933Z,38.2
2018-12-08T06:39:47.960Z,38.6
2018-12-08T06:40:47.864Z,39.6
2018-12-08T06:41:47.902Z,41.4
2018-12-08T06:42:47.872Z,41.8
2018-12-08T06:43:47.873Z,42.4
2018-12-08T06:44:47.954Z,42
2018-12-08T06:45:47.874Z,41.8
2018-12-08T06:46:47.891Z,41.4
2018-12-08T06:47:47.861Z,41.5
2018-12-08T06:48:47.874Z,41.5
2018-12-08T06:49:47.905Z,41.9
2018-12-08T06:50:47.861Z,42.7
2018-12-08T06:51:47.882Z,43.5
2018-12-08T06:52:47.870Z,43.3
2018-12-08T06:53:47.885Z,42.9
2018-12-08T06:54:47.917Z,43.7
2018-12-08T06:55:47.866Z,44.4
2018-12-08T06:56:47.869Z,44
2018-12-08T06:57:47.858Z,44.4
2018-12-08T06:58:47.989Z,45.2
2018-12-08T06:59:47.851Z,45.9
2018-12-08T07:00:47.912Z,46.1
2018-12-08T07:01:47.884Z,45.3
2018-12-08T07:02:47.882Z,45
2018-12-08T07:03:47.854Z,45.2
2018-12-08T07:04:47.866Z,45.1
2018-12-08T07:05:47.899Z,45.4
2018-12-08T07:06:47.945Z,45.5
2018-12-08T07:07:47.864Z,45.5
2018-12-08T07:08:47.865Z,46.2
2018-12-08T07:09:47.882Z,45.8
2018-12-08T07:10:47.840Z,45.5
2018-12-08T07:11:47.873Z,44.8
2018-12-08T07:12:47.897Z,44.5
2018-12-08T07:14:50.326Z,4.7
2018-12-08T07:15:51.465Z,7.8
2018-12-08T07:16:50.372Z,10.3
2018-12-08T07:17:50.808Z,13
2018-12-08T07:18:50.884Z,15.8
2018-12-08T07:19:50.276Z,18.8
2018-12-08T07:20:52.246Z,21.8
2018-12-08T07:21:50.457Z,23.8
2018-12-08T07:22:50.919Z,25.6
2018-12-08T07:23:50.450Z,27.8
2018-12-08T07:24:50.715Z,30.4
2018-12-08T07:25:50.356Z,33
2018-12-08T07:26:50.281Z,33.5
2018-12-08T07:27:53.258Z,34.6
2018-12-08T07:28:50.767Z,36.2
2018-12-08T07:29:50.285Z,36.8
2018-12-08T07:30:54.337Z,4.2
2018-12-08T07:31:54.317Z,8.2
2018-12-08T07:32:54.973Z,11.6
2018-12-08T07:33:54.771Z,15.1
2018-12-08T07:34:55.176Z,19.1
2018-12-08T07:35:54.328Z,22.6
2018-12-08T07:36:54.687Z,25.3
2018-12-08T07:37:54.341Z,27.5
2018-12-08T07:38:54.318Z,29
2018-12-08T07:39:57.547Z,30.7
2018-12-08T07:40:55.123Z,32.6
2018-12-08T07:41:54.432Z,35.2
2018-12-08T07:42:54.351Z,36.9
2018-12-08T07:43:54.410Z,37.5
2018-12-08T07:44:54.326Z,38.6
2018-12-08T07:45:54.312Z,39.5
2018-12-08T07:46:54.328Z,40.5
2018-12-08T07:47:54.340Z,41.1
2018-12-08T07:48:54.406Z,41.1
2018-12-08T07:49:54.321Z,41.9
2018-12-08T07:50:54.348Z,42.6
2018-12-08T07:51:54.416Z,43
2018-12-08T07:52:54.305Z,43.8
2018-12-08T07:53:54.412Z,45
2018-12-08T07:54:54.305Z,45.7
2018-12-08T07:55:54.380Z,46.9
2018-12-08T07:56:54.344Z,47.2
2018-12-08T07:57:54.325Z,48.3
2018-12-08T07:58:54.321Z,49.6
2018-12-08T07:59:54.328Z,50.1
2018-12-08T08:00:54.367Z,49.7
2018-12-08T08:01:54.325Z,50.6
2018-12-08T08:02:54.364Z,51.7
2018-12-08T08:03:54.385Z,53.3
2018-12-08T08:04:54.327Z,54.3
2018-12-08T08:05:54.434Z,54.2
2018-12-08T08:06:54.337Z,54.8
2018-12-08T08:07:54.323Z,55.2
2018-12-08T08:08:54.300Z,54.8
2018-12-08T08:09:54.402Z,55.8
2018-12-08T08:10:54.303Z,55.7
2018-12-08T08:11:54.406Z,57.2
2018-12-08T08:12:54.319Z,56.8
2018-12-08T08:13:54.315Z,57.1
2018-12-08T08:14:54.336Z,57.1
2018-12-08T08:15:54.327Z,57.7
2018-12-08T08:16:54.381Z,57.7
2018-12-08T08:17:54.411Z,58
2018-12-08T08:18:54.302Z,58.2
2018-12-08T08:19:54.315Z,58.5
2018-12-08T08:20:54.334Z,58.2
2018-12-08T08:21:54.323Z,59.6
2018-12-08T08:22:54.404Z,59.2
2018-12-08T08:23:54.311Z,58.2
2018-12-08T08:24:54.332Z,57.8
2018-12-08T08:25:54.329Z,58
2018-12-08T08:26:54.294Z,58.9
2018-12-08T08:27:54.407Z,58.8
2018-12-08T08:28:54.308Z,58.1
2018-12-08T08:29:54.330Z,57.2
2018-12-08T08:30:54.311Z,58.7
2018-12-08T08:31:54.311Z,59.1
2018-12-08T08:32:54.290Z,58.3
2018-12-08T08:33:54.317Z,57.5
2018-12-08T08:34:54.307Z,57.9
2018-12-08T08:35:54.316Z,57.5
2018-12-08T08:36:54.321Z,57.7
2018-12-08T08:37:54.385Z,57.7
2018-12-08T08:38:54.289Z,56.8
2018-12-08T08:39:54.331Z,56.9
2018-12-08T08:40:54.304Z,57.3
2018-12-08T08:41:54.402Z,57
2018-12-08T08:42:54.329Z,56.8
2018-12-08T08:43:56.192Z,57.1
2018-12-08T08:44:54.299Z,56.9
2018-12-08T08:46:59.138Z,5.2
2018-12-08T08:47:59.059Z,11.3
2018-12-08T08:48:59.046Z,16.1
2018-12-08T08:49:59.082Z,19.5
2018-12-08T08:50:59.071Z,24.4
2018-12-08T08:51:59.136Z,27.5
2018-12-08T08:52:59.065Z,29.7
2018-12-08T08:53:59.048Z,31.4
2018-12-08T08:54:59.132Z,32.9
2018-12-08T08:55:59.082Z,34.3
2018-12-08T08:56:59.131Z,36.8
2018-12-08T08:57:59.061Z,39.3
2018-12-08T08:58:59.042Z,40
2018-12-08T08:59:59.151Z,41.5
2018-12-08T09:00:59.080Z,42.6
2018-12-08T09:02:00.355Z,44.4
2018-12-08T09:02:59.099Z,46.8
2018-12-08T09:03:59.088Z,47.3
2018-12-08T09:04:59.047Z,48.2
2018-12-08T09:10:29.642Z,5.1
2018-12-08T09:22:12.583Z,5.8
2018-12-08T09:26:17.875Z,6.3
2018-12-08T09:43:42.781Z,5.6
2018-12-08T09:44:42.715Z,9.8
2018-12-08T09:45:42.745Z,12.9
2018-12-08T09:46:42.710Z,17.2
2018-12-08T09:47:42.751Z,20.5
2018-12-08T09:48:42.777Z,23.6
2018-12-08T09:49:42.709Z,27.6
2018-12-08T09:50:42.748Z,31.5
2018-12-08T09:51:42.818Z,33.8
2018-12-08T09:52:42.718Z,36.2
2018-12-08T09:53:47.913Z,4.9
2018-12-08T09:54:47.899Z,10.8
2018-12-08T09:55:47.901Z,15.5
2018-12-08T09:56:47.894Z,20
2018-12-08T09:57:47.960Z,24.1
2018-12-08T09:58:48.040Z,26.7
2018-12-08T09:59:47.920Z,30.2
2018-12-08T10:00:47.914Z,32.5
2018-12-08T10:01:47.955Z,34.3
2018-12-08T10:02:47.982Z,36.7
2018-12-08T10:03:47.903Z,38.8
2018-12-08T10:04:47.997Z,39.2
2018-12-08T10:05:47.893Z,40.4
2018-12-08T10:06:47.893Z,42.7
2018-12-08T10:07:47.897Z,43.5
2018-12-08T10:08:47.978Z,44
2018-12-08T10:09:47.910Z,44.8
2018-12-08T10:10:47.950Z,45.8
2018-12-08T10:11:47.955Z,46
2018-12-08T10:12:47.900Z,47.1
2018-12-08T10:13:47.907Z,47.3
2018-12-08T10:14:47.926Z,50
2018-12-08T10:15:47.956Z,51.9
2018-12-08T10:16:47.910Z,53.1
2018-12-08T10:17:47.980Z,55.1
2018-12-08T10:18:47.957Z,54.9
2018-12-08T10:19:47.893Z,55.6
2018-12-08T10:20:47.884Z,54.7
2018-12-08T10:21:48.941Z,55.4
2018-12-08T10:22:50.287Z,55.7
2018-12-08T10:23:47.988Z,55.3
2018-12-08T10:24:47.903Z,55.6
2018-12-08T10:25:47.963Z,55.2
2018-12-08T10:26:48.338Z,55.1
2018-12-08T10:27:47.960Z,55.5
2018-12-08T10:28:47.907Z,56
2018-12-08T10:29:48.050Z,55.7
2018-12-08T10:30:47.904Z,56.7
2018-12-08T10:31:48.483Z,58.2
2018-12-08T10:32:47.892Z,58.5
2018-12-08T10:33:47.905Z,59.5
2018-12-08T10:34:50.973Z,59.9
2018-12-08T10:35:47.945Z,60
2018-12-08T10:36:49.319Z,59.8
2018-12-08T10:38:49.934Z,6.6
2018-12-08T10:39:50.207Z,12
2018-12-08T10:40:49.898Z,17.4
2018-12-08T10:41:49.862Z,20.4
2018-12-08T10:42:49.861Z,23.4
2018-12-08T10:43:49.951Z,26.2
2018-12-08T10:44:49.861Z,27.9
2018-12-08T10:45:49.859Z,29.7
2018-12-08T10:46:49.909Z,31.9
2018-12-08T10:47:49.856Z,36.8
2018-12-08T10:48:50.030Z,38.4
2018-12-08T10:49:49.857Z,39.5
2018-12-08T10:50:49.884Z,42.8
2018-12-08T10:51:49.855Z,44.7
2018-12-08T10:52:49.850Z,47.7
2018-12-08T10:53:49.946Z,49.7
2018-12-08T10:54:49.906Z,51.2
2018-12-08T10:55:49.877Z,52.5
2018-12-08T10:56:49.879Z,52.2
2018-12-08T10:57:49.877Z,53.1
2018-12-08T10:58:49.962Z,54.4
2018-12-08T10:59:49.852Z,54.8
2018-12-08T11:00:49.875Z,55.7
2018-12-08T11:01:49.874Z,55.9
2018-12-08T11:02:49.863Z,57.2
2018-12-08T11:03:49.922Z,58
2018-12-08T11:04:49.861Z,57.4
2018-12-08T11:05:49.940Z,57.3
2018-12-08T11:06:49.852Z,57.7
2018-12-08T11:07:49.869Z,58.5
2018-12-08T11:08:49.867Z,59.5
2018-12-08T11:09:49.918Z,60.7
2018-12-08T11:10:49.923Z,60.3
2018-12-08T11:11:49.869Z,61
2018-12-08T11:12:49.868Z,59.5
2018-12-08T11:13:49.868Z,58.9
2018-12-08T11:14:49.977Z,58.3
2018-12-08T11:15:49.931Z,58.7
2018-12-08T11:16:49.853Z,60
2018-12-08T11:17:49.851Z,59.8
2018-12-08T11:18:49.845Z,59.5
2018-12-08T11:19:49.941Z,59.9
2018-12-08T11:20:49.862Z,60
2018-12-08T11:21:49.873Z,60.4
2018-12-08T11:22:49.844Z,61.3
2018-12-08T11:23:49.867Z,61.6
2018-12-08T11:24:49.991Z,62
2018-12-08T11:25:49.861Z,60.6
2018-12-08T11:26:49.853Z,61.4
2018-12-08T11:27:49.872Z,61.1
2018-12-08T11:28:49.867Z,62
2018-12-08T11:29:49.902Z,62.9
2018-12-08T11:30:49.859Z,62.2
2018-12-08T11:31:49.851Z,61
2018-12-08T11:32:49.909Z,59.6
2018-12-08T11:33:49.847Z,58.6
2018-12-08T11:34:49.850Z,58.9
2018-12-08T11:35:49.926Z,59.6
2018-12-08T11:36:49.952Z,59.4
2018-12-08T11:37:49.851Z,58.6
2018-12-08T11:38:49.935Z,58.9
2018-12-08T11:39:49.854Z,58.1
2018-12-08T11:40:49.834Z,58.5
2018-12-08T11:41:49.914Z,59.6
2018-12-08T11:42:49.852Z,59.9
2018-12-08T11:43:49.870Z,58.8
2018-12-08T11:44:49.857Z,58.4
2018-12-08T11:45:49.848Z,59.7
2018-12-08T11:46:49.931Z,60.7
2018-12-08T11:47:49.937Z,60.8
2018-12-08T11:48:49.841Z,60.3
2018-12-08T11:49:49.852Z,58.9
2018-12-08T11:50:49.859Z,58.1
2018-12-08T11:51:50.095Z,57.1
2018-12-08T11:52:49.884Z,57.4
2018-12-08T11:53:49.832Z,56.9
2018-12-08T11:54:49.849Z,57.7
2018-12-08T11:55:49.913Z,57.1
2018-12-08T11:56:49.839Z,57.3
2018-12-08T11:57:49.888Z,56.5
2018-12-08T11:58:49.842Z,57.3
2018-12-08T11:59:49.869Z,56.7
2018-12-08T12:00:49.920Z,55.5
2018-12-08T12:01:49.835Z,55.3
2018-12-08T12:02:49.849Z,54.5
2018-12-08T12:03:49.909Z,53.5
2018-12-08T12:04:52.698Z,53
2018-12-08T12:05:49.838Z,53
2018-12-08T12:06:49.915Z,53.4
2018-12-08T12:07:49.824Z,53.7
2018-12-08T12:08:49.821Z,55.8
2018-12-08T12:09:49.852Z,56.5
2018-12-08T12:10:49.850Z,56.2
2018-12-08T12:11:49.883Z,56.1
2018-12-08T12:12:50.044Z,56.1
2018-12-08T12:13:49.910Z,56.1
2018-12-08T12:14:49.990Z,56.1
2018-12-08T12:15:50.093Z,56.6
2018-12-08T12:16:49.919Z,57.1
2018-12-08T12:17:49.998Z,56.8
2018-12-08T12:18:49.905Z,56.7
2018-12-08T12:19:49.856Z,56.5
2018-12-08T12:20:49.930Z,56.5
2018-12-08T12:21:49.958Z,57.4
2018-12-08T12:22:49.900Z,59.6
2018-12-08T12:23:49.916Z,59.9
2018-12-08T12:24:50.015Z,59
2018-12-08T12:25:49.858Z,58.4
2018-12-08T12:26:49.866Z,58.4
2018-12-08T12:27:54.527Z,5.2
2018-12-08T12:28:54.567Z,10.8
2018-12-08T12:29:54.689Z,14.3
2018-12-08T12:30:54.578Z,18.2
2018-12-08T12:31:54.564Z,23.1
2018-12-08T12:32:54.553Z,26
2018-12-08T12:33:54.601Z,30.2
2018-12-08T12:34:54.540Z,33
2018-12-08T12:35:54.622Z,36.7
2018-12-08T12:36:54.522Z,38.9
2018-12-08T12:37:54.505Z,40.9
2018-12-08T12:38:54.719Z,43.9
2018-12-08T12:39:54.558Z,44.9
2018-12-08T12:40:54.535Z,45.8
2018-12-08T12:41:54.529Z,45.6
2018-12-08T12:42:54.543Z,46.5
2018-12-08T12:43:54.687Z,47.8
2018-12-08T12:44:54.562Z,48.1
2018-12-08T12:45:54.597Z,48.3
2018-12-08T12:46:54.515Z,49.5
2018-12-08T12:47:54.536Z,50.9
2018-12-08T12:48:54.561Z,52
2018-12-08T12:49:54.522Z,52.8
2018-12-08T12:50:54.592Z,53.2
2018-12-08T12:51:54.508Z,53.3
2018-12-08T12:52:54.599Z,53.8
2018-12-08T12:53:54.604Z,54.9
2018-12-08T12:54:54.594Z,55.2
2018-12-08T12:55:54.566Z,55.3
2018-12-08T12:56:54.515Z,54.9
2018-12-08T12:57:54.580Z,53.9
2018-12-08T12:58:54.639Z,53.8
2018-12-08T12:59:56.556Z,52.9
2018-12-08T13:00:54.519Z,52.9
2018-12-08T13:01:54.511Z,53
2018-12-08T13:02:54.615Z,52.2
2018-12-08T13:03:54.672Z,51.4
2018-12-08T13:04:57.226Z,51.1
2018-12-08T13:05:54.591Z,51.7
2018-12-08T13:06:54.512Z,51.1
2018-12-08T13:07:57.732Z,50.7
2018-12-08T13:08:54.499Z,50
2018-12-08T13:09:54.555Z,49.9
2018-12-08T13:10:54.755Z,49.4
2018-12-08T13:11:54.545Z,48.4
2018-12-08T13:12:55.021Z,48.6
2018-12-08T13:13:54.653Z,50
2018-12-08T13:14:56.516Z,50.2
2018-12-08T13:15:54.580Z,49.5
2018-12-08T13:16:54.764Z,49.2
2018-12-08T13:17:55.192Z,48.3
2018-12-08T13:18:56.062Z,48.1
2018-12-08T13:19:54.874Z,48.5
2018-12-08T13:20:54.647Z,49
2018-12-08T13:21:54.522Z,48.9
2018-12-08T13:22:54.524Z,50.8
2018-12-08T13:23:54.506Z,51.4
2018-12-08T13:24:54.535Z,50.8
2018-12-08T13:25:54.691Z,50.1
2018-12-08T13:26:55.590Z,50.2
2018-12-08T13:27:54.638Z,49.9
2018-12-08T13:28:54.477Z,51.2
2018-12-08T13:29:54.502Z,52.2
2018-12-08T13:30:54.461Z,51.8
2018-12-08T13:31:54.584Z,53.5
2018-12-08T13:32:54.539Z,53.2
2018-12-08T13:33:54.639Z,53.9
2018-12-08T13:34:54.525Z,53.3
2018-12-08T13:35:54.550Z,52.9
2018-12-08T13:36:54.592Z,52.1
2018-12-08T13:37:54.523Z,52.4
2018-12-08T13:38:54.461Z,53.4
2018-12-08T13:39:54.979Z,53.6
2018-12-08T13:40:56.129Z,53.7
2018-12-08T13:41:57.130Z,54.1
2018-12-08T13:42:54.461Z,53.3
2018-12-08T13:43:54.768Z,53.9
2018-12-08T13:44:54.472Z,55.3
2018-12-08T13:45:56.082Z,55.1
2018-12-08T13:46:54.937Z,54
2018-12-08T13:47:54.587Z,55.1
2018-12-08T13:48:54.587Z,55.3
2018-12-08T13:49:57.011Z,55.1
2018-12-08T13:50:55.568Z,54.4
2018-12-08T13:51:54.639Z,54.4
2018-12-08T13:52:54.586Z,55.3
2018-12-08T13:53:57.063Z,55.5
2018-12-08T13:54:56.195Z,56
2018-12-08T13:55:56.590Z,55.4
2018-12-08T13:56:54.523Z,55.1
2018-12-08T13:57:56.265Z,55.5
2018-12-08T13:58:54.502Z,55.7
2018-12-08T13:59:54.503Z,55.5
2018-12-08T14:00:54.569Z,55
2018-12-08T14:01:55.588Z,53.9
2018-12-08T14:02:54.560Z,53.7